Rechercher aéroport 
image banner adimage banner adimage banner ad
image banner ad

KPMD - Palmdale Usaf Plant 42

Situé à Palmdale, United States

ICAO - PMD, IATA - PMD

Données fournies par Airmate  

Information générale

Coordonnées: N34°37'46" W118°5'4"
Élévation : 2543 feet MSL.
Variation magnétique : 12° East
Voir autres Aéroports à California

Données opérationnelles

Special qualification required
Heure actuelle UTC:
Heure actuelle locale:
Météo
METAR: KPMD 020653Z AUTO 20010KT 10SM CLR 27/M01 A3011 RMK AO2 SLP160 T02671006
TAF: KPMD 020533Z 0206/0306 22008KT P6SM SKC FM021400 VRB03KT P6SM SKC FM022200 25012G18KT P6SM SKC FM030100 25012KT P6SM SKC
Voir NOTAMs / SUP AIP / TFR affectant cet aéroport [VIEW]
Fréquences de communication: [VIEW]

Pistes:

Identifiant RWYQFULongueur (ft)Largeur (ft)SurfaceLDA (ft)
0452°12001150CONC
22232°12001150CONC
0786°12002200CONC
25266°12002200CONC

Coordonnées de l'aéroport

Adresse: Palmdale United States

Vue satellite de KPMD